Time;durP1;ratioP1;P1;durP2;ratioP2;P2;SDS_P1;SDS_P2;PMS_P1;PMS_P2;Temp;Humidity;BMP_temperature;BMP_pressure;BME280_temperature;BME280_humidity;BME280_pressure;Samples;Min_cycle;Max_cycle;Signal;HPM_P1;HPM_P2
2023/09/28 00:00:45;;;;;;;7.30;3.80;;;;;;;;;;10443504;28;20074;-80
2023/09/28 00:05:46;;;;;;;10.07;3.60;;;;;;;;;;10426254;28;20907;-76
2023/09/28 00:10:46;;;;;;;12.27;4.25;;;;;;;;;;10424985;28;20135;-82
2023/09/28 00:15:48;;;;;;;13.00;3.90;;;;;;;;;;10411314;28;20033;-80
2023/09/28 00:20:50;;;;;;;7.03;4.03;;;;;;;;;;10426758;28;20029;-82
2023/09/28 00:25:52;;;;;;;11.38;3.67;;;;;;;;;;10425946;28;20056;-82
2023/09/28 00:30:52;;;;;;;18.40;5.00;;;;;;;;;;10425565;28;20025;-85
2023/09/28 00:35:53;;;;;;;15.43;4.40;;;;;;;;;;10442119;28;20404;-80
2023/09/28 00:40:53;;;;;;;11.50;4.88;;;;;;;;;;10424715;28;20025;-77
2023/09/28 00:45:53;;;;;;;6.83;4.03;;;;;;;;;;10442085;28;20393;-82
2023/09/28 00:50:54;;;;;;;9.77;4.03;;;;;;;;;;10424147;28;20798;-82
2023/09/28 00:55:54;;;;;;;14.27;6.00;;;;;;;;;;10424538;28;20020;-80
2023/09/28 01:01:00;;;;;;;10.50;5.53;;;;;;;;;;10424668;28;20024;-81
2023/09/28 01:06:00;;;;;;;17.25;5.40;;;;;;;;;;10423266;28;20028;-81
2023/09/28 01:11:02;;;;;;;10.75;4.57;;;;;;;;;;10440605;28;20061;-77
2023/09/28 01:16:03;;;;;;;8.45;3.88;;;;;;;;;;10440940;28;20052;-82
2023/09/28 01:21:05;;;;;;;12.52;4.97;;;;;;;;;;10422708;28;20036;-81
2023/09/28 01:26:06;;;;;;;11.77;4.30;;;;;;;;;;10423811;28;20024;-78
2023/09/28 01:31:06;;;;;;;16.77;4.85;;;;;;;;;;10422805;28;20370;-82
2023/09/28 01:36:07;;;;;;;9.63;5.05;;;;;;;;;;10422174;28;20516;-83
2023/09/28 01:41:08;;;;;;;15.80;7.07;;;;;;;;;;10422513;28;20147;-76
2023/09/28 01:46:10;;;;;;;14.52;5.20;;;;;;;;;;10422823;28;20100;-83
2023/09/28 01:51:10;;;;;;;12.45;4.95;;;;;;;;;;10421960;28;20037;-80
2023/09/28 01:56:10;;;;;;;11.63;5.15;;;;;;;;;;10423035;28;20089;-77
2023/09/28 02:01:20;;;;;;;8.48;4.60;;;;;;;;;;10439307;28;20040;-77
2023/09/28 02:06:20;;;;;;;9.02;5.28;;;;;;;;;;10421543;28;20100;-76
2023/09/28 02:11:20;;;;;;;19.23;5.07;;;;;;;;;;10420811;28;20056;-84
2023/09/28 02:16:22;;;;;;;12.07;5.47;;;;;;;;;;10420606;28;20578;-81
2023/09/28 02:21:22;;;;;;;15.75;5.22;;;;;;;;;;10420737;28;20082;-76
2023/09/28 02:26:24;;;;;;;21.27;4.82;;;;;;;;;;10421105;28;20017;-80
2023/09/28 02:31:25;;;;;;;11.57;5.03;;;;;;;;;;10420418;28;20029;-76
2023/09/28 02:36:30;;;;;;;11.35;4.80;;;;;;;;;;10421129;28;20082;-82
2023/09/28 02:41:31;;;;;;;9.63;5.18;;;;;;;;;;10419685;28;20036;-76
2023/09/28 02:46:31;;;;;;;15.63;6.78;;;;;;;;;;10420877;28;20025;-81
2023/09/28 02:51:31;;;;;;;14.80;6.78;;;;;;;;;;10414204;28;20025;-81
2023/09/28 02:56:32;;;;;;;13.48;5.88;;;;;;;;;;10414553;28;20420;-81
2023/09/28 03:01:32;;;;;;;9.27;5.53;;;;;;;;;;10438359;28;20029;-81
2023/09/28 03:06:37;;;;;;;14.75;5.85;;;;;;;;;;10422113;28;20029;-79
2023/09/28 03:11:39;;;;;;;19.13;7.50;;;;;;;;;;10427032;28;20076;-80
2023/09/28 03:16:39;;;;;;;16.85;6.15;;;;;;;;;;10431755;28;20021;-82
2023/09/28 03:21:41;;;;;;;12.33;5.27;;;;;;;;;;10434256;28;20033;-79
2023/09/28 03:26:41;;;;;;;10.68;5.38;;;;;;;;;;10418927;28;20021;-82
2023/09/28 03:31:41;;;;;;;20.33;6.23;;;;;;;;;;10419563;28;20086;-79
2023/09/28 03:36:42;;;;;;;15.10;5.45;;;;;;;;;;10424085;28;20047;-76
2023/09/28 03:41:42;;;;;;;21.30;5.53;;;;;;;;;;10422990;28;20025;-79
2023/09/28 03:46:43;;;;;;;9.73;5.35;;;;;;;;;;10441528;28;20032;-76
2023/09/28 03:51:43;;;;;;;14.53;5.40;;;;;;;;;;10423856;28;20046;-76
2023/09/28 03:56:43;;;;;;;9.48;5.20;;;;;;;;;;10426359;28;20029;-75
2023/09/28 04:01:44;;;;;;;12.88;5.18;;;;;;;;;;10422585;28;20029;-81
2023/09/28 04:06:45;;;;;;;23.30;6.28;;;;;;;;;;10436839;28;20466;-84
2023/09/28 04:11:45;;;;;;;19.27;5.65;;;;;;;;;;10441280;28;20049;-75
2023/09/28 04:16:46;;;;;;;32.97;7.65;;;;;;;;;;10420639;28;20028;-77
2023/09/28 04:21:46;;;;;;;22.15;8.13;;;;;;;;;;10437052;28;20035;-74
2023/09/28 04:26:47;;;;;;;23.33;7.65;;;;;;;;;;10435977;28;20335;-79
2023/09/28 04:31:47;;;;;;;18.85;6.70;;;;;;;;;;10426756;28;20040;-82
2023/09/28 04:36:49;;;;;;;17.23;7.77;;;;;;;;;;10437963;28;20024;-80
2023/09/28 04:41:54;;;;;;;17.60;7.57;;;;;;;;;;10413039;28;20037;-83
2023/09/28 04:46:54;;;;;;;17.38;7.55;;;;;;;;;;10417965;28;20392;-81
2023/09/28 04:51:55;;;;;;;33.78;8.35;;;;;;;;;;10437672;28;20039;-74
2023/09/28 04:56:55;;;;;;;16.83;7.20;;;;;;;;;;10419043;28;20083;-75
2023/09/28 05:01:57;;;;;;;23.38;7.70;;;;;;;;;;10417035;28;20023;-75
2023/09/28 05:06:59;;;;;;;26.08;7.97;;;;;;;;;;10419256;28;20032;-75
2023/09/28 05:12:01;;;;;;;16.27;7.05;;;;;;;;;;10415730;28;20029;-77
2023/09/28 05:17:01;;;;;;;38.55;7.25;;;;;;;;;;10416458;28;20017;-79
2023/09/28 05:22:01;;;;;;;24.13;6.78;;;;;;;;;;10417564;28;20037;-76
2023/09/28 05:27:02;;;;;;;30.42;6.82;;;;;;;;;;10422032;28;20063;-81
2023/09/28 05:32:03;;;;;;;30.98;7.20;;;;;;;;;;10421908;28;20017;-79
2023/09/28 05:37:03;;;;;;;21.55;7.50;;;;;;;;;;10422350;28;20063;-81
2023/09/28 05:42:04;;;;;;;15.52;5.75;;;;;;;;;;10421887;28;20029;-84
2023/09/28 05:47:04;;;;;;;16.42;5.53;;;;;;;;;;10438348;28;20041;-76
2023/09/28 05:52:05;;;;;;;12.35;5.20;;;;;;;;;;10422093;28;20488;-80
2023/09/28 05:57:05;;;;;;;27.08;6.10;;;;;;;;;;10420427;28;20033;-81
2023/09/28 06:02:06;;;;;;;16.92;6.03;;;;;;;;;;10420013;28;20511;-81
2023/09/28 06:07:07;;;;;;;15.73;4.25;;;;;;;;;;10438595;28;20036;-81
2023/09/28 06:12:07;;;;;;;8.33;3.80;;;;;;;;;;10437204;28;20032;-81
2023/09/28 06:17:07;;;;;;;22.60;5.23;;;;;;;;;;10420322;28;20294;-81
2023/09/28 06:22:09;;;;;;;20.20;6.22;;;;;;;;;;10438899;28;20089;-76
2023/09/28 06:27:10;;;;;;;18.50;6.55;;;;;;;;;;10421086;28;20532;-79
2023/09/28 06:32:10;;;;;;;19.25;4.85;;;;;;;;;;10419354;28;20124;-85
2023/09/28 06:37:10;;;;;;;9.73;4.05;;;;;;;;;;10420816;28;20090;-80
2023/09/28 06:42:11;;;;;;;15.40;4.50;;;;;;;;;;10419863;28;20148;-77
2023/09/28 06:47:12;;;;;;;12.70;3.50;;;;;;;;;;10437665;28;20032;-82
2023/09/28 06:52:12;;;;;;;10.35;3.70;;;;;;;;;;10419912;28;20028;-84
2023/09/28 06:57:12;;;;;;;16.63;3.95;;;;;;;;;;10420530;28;20033;-80
2023/09/28 07:02:12;;;;;;;14.80;4.18;;;;;;;;;;10438102;28;20139;-80
2023/09/28 07:07:17;;;;;;;12.98;4.20;;;;;;;;;;10419001;28;20041;-82
2023/09/28 07:12:18;;;;;;;16.10;4.65;;;;;;;;;;10427003;28;20017;-80
2023/09/28 07:17:19;;;;;;;7.70;3.95;;;;;;;;;;10426944;28;20482;-80
2023/09/28 07:22:21;;;;;;;17.05;4.18;;;;;;;;;;10426038;28;20021;-76
2023/09/28 07:27:21;;;;;;;13.18;4.72;;;;;;;;;;10427127;28;20021;-80
2023/09/28 07:32:21;;;;;;;12.47;3.93;;;;;;;;;;10427023;28;20240;-75
2023/09/28 07:37:22;;;;;;;15.43;4.07;;;;;;;;;;10426081;28;20278;-81
2023/09/28 07:42:23;;;;;;;9.88;2.78;;;;;;;;;;10445195;28;20021;-82
2023/09/28 07:47:24;;;;;;;13.38;3.33;;;;;;;;;;10425807;28;20560;-85
2023/09/28 07:52:24;;;;;;;10.52;3.63;;;;;;;;;;10425876;28;20021;-80
2023/09/28 07:57:24;;;;;;;12.60;3.90;;;;;;;;;;10426992;28;20468;-81
2023/09/28 08:02:25;;;;;;;12.13;4.27;;;;;;;;;;10426128;28;20088;-80
2023/09/28 08:07:25;;;;;;;9.00;3.57;;;;;;;;;;10424639;28;20127;-81
2023/09/28 08:12:25;;;;;;;13.10;3.80;;;;;;;;;;10424415;28;20013;-78
2023/09/28 08:17:26;;;;;;;10.43;3.35;;;;;;;;;;10443288;28;20041;-82
2023/09/28 08:22:26;;;;;;;9.55;3.30;;;;;;;;;;10423951;28;20024;-79
2023/09/28 08:27:26;;;;;;;5.17;2.10;;;;;;;;;;10424813;28;20028;-82
2023/09/28 08:32:27;;;;;;;7.43;2.20;;;;;;;;;;10442885;28;20024;-81
2023/09/28 08:37:28;;;;;;;11.07;2.57;;;;;;;;;;10424152;28;20383;-80
2023/09/28 08:42:31;;;;;;;13.35;3.25;;;;;;;;;;10423700;28;20093;-76
2023/09/28 08:47:34;;;;;;;7.05;2.47;;;;;;;;;;10424271;28;20059;-79
2023/09/28 08:52:35;;;;;;;10.15;2.38;;;;;;;;;;10440550;28;20017;-81
2023/09/28 08:57:36;;;;;;;9.07;2.80;;;;;;;;;;10441697;28;20163;-77
2023/09/28 09:02:37;;;;;;;6.18;3.03;;;;;;;;;;10442185;28;20024;-75
2023/09/28 09:07:38;;;;;;;8.15;2.60;;;;;;;;;;10422924;28;20056;-82
2023/09/28 09:12:39;;;;;;;10.10;2.80;;;;;;;;;;10422662;28;20055;-82
2023/09/28 09:17:39;;;;;;;11.90;3.10;;;;;;;;;;10423010;28;20128;-81
2023/09/28 09:22:39;;;;;;;11.70;2.50;;;;;;;;;;10421484;28;20503;-82
2023/09/28 09:27:40;;;;;;;8.00;2.42;;;;;;;;;;10422163;28;20389;-83
2023/09/28 09:32:42;;;;;;;11.13;3.75;;;;;;;;;;10421976;28;20029;-80
2023/09/28 09:37:50;;;;;;;9.73;2.65;;;;;;;;;;10451158;28;20425;-83
2023/09/28 09:42:51;;;;;;;7.05;2.50;;;;;;;;;;10421890;28;20017;-83
2023/09/28 09:47:52;;;;;;;6.03;2.28;;;;;;;;;;10420938;28;20032;-81
2023/09/28 09:52:53;;;;;;;11.60;2.05;;;;;;;;;;10421040;28;20508;-80
2023/09/28 09:57:57;;;;;;;7.25;2.45;;;;;;;;;;10421457;28;20202;-74
2023/09/28 10:02:58;;;;;;;11.35;2.00;;;;;;;;;;10419891;28;20416;-83
2023/09/28 10:07:59;;;;;;;8.55;1.63;;;;;;;;;;10438691;28;20302;-78
2023/09/28 10:13:00;;;;;;;6.78;1.70;;;;;;;;;;10420631;28;20047;-85
2023/09/28 10:18:01;;;;;;;12.50;2.40;;;;;;;;;;10420158;28;20540;-79
2023/09/28 10:23:13;;;;;;;10.52;2.83;;;;;;;;;;10420315;28;20025;-81
2023/09/28 10:28:13;;;;;;;6.35;2.10;;;;;;;;;;10420494;28;20471;-81
2023/09/28 10:33:16;;;;;;;12.77;3.00;;;;;;;;;;10411947;28;20029;-81
2023/09/28 10:38:20;;;;;;;5.05;2.28;;;;;;;;;;10427259;28;20129;-80
2023/09/28 10:43:30;;;;;;;8.70;3.15;;;;;;;;;;10422276;28;20025;-80
2023/09/28 10:48:40;;;;;;;10.48;3.63;;;;;;;;;;10416856;28;20025;-80
2023/09/28 10:53:41;;;;;;;13.32;2.70;;;;;;;;;;10426645;28;20027;-82
2023/09/28 10:58:42;;;;;;;13.40;2.63;;;;;;;;;;10427687;28;20032;-77
2023/09/28 11:03:42;;;;;;;13.32;2.47;;;;;;;;;;10427644;28;20024;-78
2023/09/28 11:08:43;;;;;;;5.55;2.53;;;;;;;;;;10427693;28;20448;-80
2023/09/28 11:13:43;;;;;;;17.13;2.73;;;;;;;;;;10445132;28;20138;-83
2023/09/28 11:18:44;;;;;;;12.93;1.77;;;;;;;;;;10427188;28;20098;-82
2023/09/28 11:23:45;;;;;;;8.63;2.28;;;;;;;;;;10398541;28;20029;-81
2023/09/28 11:28:45;;;;;;;17.83;2.38;;;;;;;;;;10445219;28;20393;-85
2023/09/28 11:33:46;;;;;;;15.97;2.80;;;;;;;;;;10427235;28;20028;-84
2023/09/28 11:38:52;;;;;;;7.05;3.25;;;;;;;;;;10425406;28;20329;-80
2023/09/28 11:43:52;;;;;;;10.90;2.78;;;;;;;;;;10426456;28;20044;-79
2023/09/28 11:49:16;;;;;;;9.47;2.37;;;;;;;;;;10444501;28;20495;-80
2023/09/28 11:54:16;;;;;;;10.63;3.10;;;;;;;;;;10443254;28;20033;-85
2023/09/28 11:59:17;;;;;;;12.60;2.97;;;;;;;;;;10425282;28;20017;-82
2023/09/28 12:04:17;;;;;;;10.48;3.55;;;;;;;;;;10443011;28;20006;-76
2023/09/28 12:09:19;;;;;;;10.32;2.78;;;;;;;;;;10423895;28;20088;-79
2023/09/28 12:14:19;;;;;;;14.52;3.10;;;;;;;;;;10442285;28;20048;-81
2023/09/28 12:19:20;;;;;;;10.63;3.05;;;;;;;;;;10443082;28;20132;-80
2023/09/28 12:24:20;;;;;;;10.57;2.70;;;;;;;;;;10443264;28;20396;-79
2023/09/28 12:29:20;;;;;;;8.52;2.88;;;;;;;;;;10424893;28;20356;-75
2023/09/28 12:34:21;;;;;;;8.60;2.80;;;;;;;;;;10443058;28;20025;-76
2023/09/28 12:39:22;;;;;;;8.10;2.70;;;;;;;;;;10423726;28;20040;-80
2023/09/28 12:44:23;;;;;;;10.35;3.00;;;;;;;;;;10424734;28;20078;-82
2023/09/28 12:49:23;;;;;;;17.57;3.57;;;;;;;;;;10424027;28;20017;-81
2023/09/28 12:54:23;;;;;;;12.10;3.47;;;;;;;;;;10423907;28;20517;-81
2023/09/28 12:59:24;;;;;;;7.57;2.90;;;;;;;;;;10442062;28;20658;-80
2023/09/28 13:04:24;;;;;;;7.37;2.90;;;;;;;;;;10442759;28;20053;-80
2023/09/28 13:09:27;;;;;;;9.80;3.17;;;;;;;;;;10423473;28;20052;-80
2023/09/28 13:14:28;;;;;;;9.93;3.13;;;;;;;;;;10441748;28;20029;-82
2023/09/28 13:19:29;;;;;;;13.10;4.27;;;;;;;;;;10407729;28;20039;-82
2023/09/28 13:24:29;;;;;;;15.27;3.45;;;;;;;;;;10422648;28;20032;-83
2023/09/28 13:29:30;;;;;;;9.63;3.33;;;;;;;;;;10422899;28;20116;-81
2023/09/28 13:34:30;;;;;;;8.40;4.07;;;;;;;;;;10422100;28;20492;-79
2023/09/28 13:39:33;;;;;;;13.75;3.58;;;;;;;;;;10421617;28;20561;-74
2023/09/28 13:44:33;;;;;;;9.65;3.53;;;;;;;;;;10419399;28;20650;-76
2023/09/28 13:49:34;;;;;;;9.27;3.17;;;;;;;;;;10419658;28;20150;-79
2023/09/28 13:54:34;;;;;;;8.77;3.40;;;;;;;;;;10420905;28;20036;-78
2023/09/28 13:59:35;;;;;;;12.60;3.50;;;;;;;;;;10419152;28;20111;-78
2023/09/28 14:04:36;;;;;;;12.05;3.90;;;;;;;;;;10419667;28;20025;-79
2023/09/28 14:09:36;;;;;;;14.45;3.30;;;;;;;;;;10436228;28;20394;-77
2023/09/28 14:14:37;;;;;;;8.83;3.50;;;;;;;;;;10414146;28;20025;-79
2023/09/28 14:19:37;;;;;;;8.60;2.87;;;;;;;;;;10405605;28;20033;-73
2023/09/28 14:24:37;;;;;;;13.60;3.00;;;;;;;;;;10403230;28;20090;-75
2023/09/28 14:29:38;;;;;;;9.60;4.03;;;;;;;;;;10420392;28;20490;-77
2023/09/28 14:34:38;;;;;;;12.18;3.97;;;;;;;;;;10404225;28;20115;-80
2023/09/28 14:39:38;;;;;;;13.88;4.10;;;;;;;;;;10419952;28;20027;-74
2023/09/28 14:44:39;;;;;;;18.70;3.45;;;;;;;;;;10418894;28;20108;-79
2023/09/28 14:49:39;;;;;;;12.53;3.20;;;;;;;;;;10425239;28;20496;-80
2023/09/28 14:54:39;;;;;;;15.88;3.65;;;;;;;;;;10400292;28;20268;-80
2023/09/28 14:59:39;;;;;;;13.27;3.42;;;;;;;;;;10419344;28;20033;-81
2023/09/28 15:04:40;;;;;;;10.43;3.55;;;;;;;;;;10419371;28;20024;-80
2023/09/28 15:09:40;;;;;;;12.93;3.70;;;;;;;;;;10419180;28;20092;-82
2023/09/28 15:14:40;;;;;;;5.40;3.42;;;;;;;;;;10418719;28;20037;-81
2023/09/28 15:19:41;;;;;;;10.80;3.53;;;;;;;;;;10418531;28;20151;-79
2023/09/28 15:24:41;;;;;;;8.07;3.17;;;;;;;;;;10419849;28;20013;-73
2023/09/28 15:29:41;;;;;;;15.70;3.57;;;;;;;;;;10420743;28;20557;-81
2023/09/28 15:34:42;;;;;;;12.80;3.40;;;;;;;;;;10426038;28;20056;-77
2023/09/28 15:39:42;;;;;;;10.60;2.88;;;;;;;;;;10426210;28;20036;-74
2023/09/28 15:44:42;;;;;;;10.57;3.22;;;;;;;;;;10426502;28;20099;-79
2023/09/28 15:49:43;;;;;;;7.07;3.47;;;;;;;;;;10444070;28;20028;-79
2023/09/28 15:54:43;;;;;;;12.73;3.00;;;;;;;;;;10443817;28;20036;-81
2023/09/28 15:59:45;;;;;;;13.60;3.70;;;;;;;;;;10425918;28;20436;-83
2023/09/28 16:04:45;;;;;;;14.32;3.65;;;;;;;;;;10442974;28;20021;-81
2023/09/28 16:09:49;;;;;;;13.23;4.00;;;;;;;;;;10424346;28;20049;-76
2023/09/28 16:14:49;;;;;;;6.10;3.60;;;;;;;;;;10424628;28;20498;-75
2023/09/28 16:19:50;;;;;;;9.18;3.65;;;;;;;;;;10407637;28;20029;-78
2023/09/28 16:24:50;;;;;;;22.67;3.63;;;;;;;;;;10424964;28;20187;-82
2023/09/28 16:29:50;;;;;;;15.15;3.95;;;;;;;;;;10424558;28;20096;-78
2023/09/28 16:34:51;;;;;;;11.23;3.00;;;;;;;;;;10424734;28;20248;-78
2023/09/28 16:39:52;;;;;;;11.55;3.78;;;;;;;;;;10423197;28;20708;-81
2023/09/28 16:44:53;;;;;;;14.13;3.35;;;;;;;;;;10424268;28;20048;-78
2023/09/28 16:49:53;;;;;;;15.60;3.80;;;;;;;;;;10441598;28;20456;-75
2023/09/28 16:54:53;;;;;;;8.55;3.10;;;;;;;;;;10422951;28;20025;-74
2023/09/28 16:59:54;;;;;;;18.70;4.43;;;;;;;;;;10423148;28;20468;-75
2023/09/28 17:04:54;;;;;;;11.80;4.28;;;;;;;;;;10422687;28;20032;-78
2023/09/28 17:09:54;;;;;;;13.73;3.50;;;;;;;;;;10422023;28;20049;-78
2023/09/28 17:14:54;;;;;;;11.07;3.95;;;;;;;;;;10439456;28;20024;-77
2023/09/28 17:19:55;;;;;;;11.02;3.47;;;;;;;;;;10422317;28;20032;-78
2023/09/28 17:24:57;;;;;;;15.88;3.17;;;;;;;;;;10422264;28;20313;-77
2023/09/28 17:29:58;;;;;;;10.35;3.50;;;;;;;;;;10421991;28;20397;-83
2023/09/28 17:34:58;;;;;;;13.15;3.05;;;;;;;;;;10422294;28;20029;-80
2023/09/28 17:39:58;;;;;;;8.70;2.80;;;;;;;;;;10421777;28;20138;-75
2023/09/28 17:44:58;;;;;;;12.90;3.53;;;;;;;;;;10439497;28;20108;-79
2023/09/28 17:49:59;;;;;;;11.50;4.05;;;;;;;;;;10421915;28;20029;-75
2023/09/28 17:54:59;;;;;;;11.73;3.10;;;;;;;;;;10440372;28;20048;-77
2023/09/28 17:59:59;;;;;;;7.95;2.90;;;;;;;;;;10419651;28;20151;-78
2023/09/28 18:05:01;;;;;;;7.63;3.50;;;;;;;;;;10413840;28;20408;-77
2023/09/28 18:10:02;;;;;;;12.10;3.03;;;;;;;;;;10419278;28;20067;-80
2023/09/28 18:15:03;;;;;;;12.55;3.60;;;;;;;;;;10438178;28;20024;-78
2023/09/28 18:20:07;;;;;;;19.48;3.33;;;;;;;;;;10419680;28;20039;-76
2023/09/28 18:25:09;;;;;;;12.35;3.00;;;;;;;;;;10421828;28;20028;-80
2023/09/28 18:30:12;;;;;;;18.27;6.13;;;;;;;;;;10419799;28;20135;-76
2023/09/28 18:35:12;;;;;;;19.52;10.38;;;;;;;;;;10419508;28;20131;-76
2023/09/28 18:40:13;;;;;;;15.30;8.88;;;;;;;;;;10419193;28;20029;-78
2023/09/28 18:45:14;;;;;;;15.45;4.72;;;;;;;;;;10437165;28;20499;-77
2023/09/28 18:50:14;;;;;;;15.48;4.13;;;;;;;;;;10418726;28;20036;-82
2023/09/28 18:55:14;;;;;;;8.10;3.08;;;;;;;;;;10427642;28;20436;-82
2023/09/28 19:00:16;;;;;;;13.33;3.77;;;;;;;;;;10418083;28;20029;-80
2023/09/28 19:05:16;;;;;;;10.68;3.58;;;;;;;;;;10422313;28;20064;-80
2023/09/28 19:10:17;;;;;;;12.30;3.92;;;;;;;;;;10443025;28;20106;-77
2023/09/28 19:15:17;;;;;;;12.18;3.92;;;;;;;;;;10426289;28;20033;-82
2023/09/28 19:20:17;;;;;;;8.10;3.25;;;;;;;;;;10424766;28;20128;-76
2023/09/28 19:25:18;;;;;;;6.07;2.28;;;;;;;;;;10405480;28;20033;-76
2023/09/28 19:30:18;;;;;;;6.00;2.65;;;;;;;;;;10416889;28;20472;-75
2023/09/28 19:35:18;;;;;;;9.25;3.30;;;;;;;;;;10440578;28;20837;-79
2023/09/28 19:40:19;;;;;;;15.35;2.83;;;;;;;;;;10424229;28;20419;-81
2023/09/28 19:45:19;;;;;;;12.70;2.80;;;;;;;;;;10442368;28;20021;-77
2023/09/28 19:50:22;;;;;;;9.65;2.42;;;;;;;;;;10429152;28;20033;-84
2023/09/28 19:55:22;;;;;;;14.55;3.60;;;;;;;;;;10421907;28;20029;-80
2023/09/28 20:00:22;;;;;;;16.40;3.28;;;;;;;;;;10422273;28;20021;-81
2023/09/28 20:05:23;;;;;;;7.85;2.42;;;;;;;;;;10441175;28;20047;-85
2023/09/28 20:10:24;;;;;;;11.68;2.70;;;;;;;;;;10424270;28;20436;-83
2023/09/28 20:15:25;;;;;;;7.95;2.45;;;;;;;;;;10423660;28;20658;-82
2023/09/28 20:20:25;;;;;;;14.90;3.22;;;;;;;;;;10431490;28;20033;-83
2023/09/28 20:25:25;;;;;;;20.70;3.88;;;;;;;;;;10424353;28;20028;-82
2023/09/28 20:30:26;;;;;;;11.45;3.13;;;;;;;;;;10424045;28;20050;-81
2023/09/28 20:35:27;;;;;;;9.98;2.90;;;;;;;;;;10443035;28;20021;-76
2023/09/28 20:40:28;;;;;;;21.52;2.95;;;;;;;;;;10427273;28;20039;-73
2023/09/28 20:45:29;;;;;;;11.37;2.70;;;;;;;;;;10408181;28;20056;-82
2023/09/28 20:50:29;;;;;;;7.53;2.90;;;;;;;;;;10429256;28;20028;-81
2023/09/28 20:55:30;;;;;;;13.38;3.28;;;;;;;;;;10431801;28;20035;-83
2023/09/28 21:00:30;;;;;;;9.23;3.30;;;;;;;;;;10424388;28;20285;-75
2023/09/28 21:05:31;;;;;;;6.13;2.87;;;;;;;;;;10401895;28;20473;-75
2023/09/28 21:10:31;;;;;;;6.40;2.63;;;;;;;;;;10415536;28;20052;-83
2023/09/28 21:15:31;;;;;;;13.23;3.67;;;;;;;;;;10433110;28;20530;-80
2023/09/28 21:20:32;;;;;;;24.23;4.25;;;;;;;;;;10434797;28;20083;-80
2023/09/28 21:25:32;;;;;;;18.88;3.30;;;;;;;;;;10430355;28;20028;-82
2023/09/28 21:30:32;;;;;;;12.05;5.80;;;;;;;;;;10413438;28;20025;-82
2023/09/28 21:35:34;;;;;;;8.68;3.03;;;;;;;;;;10435705;28;20488;-81
2023/09/28 21:40:34;;;;;;;14.13;3.40;;;;;;;;;;10420154;28;20024;-79
2023/09/28 21:45:34;;;;;;;7.77;3.37;;;;;;;;;;10433586;28;20025;-83
2023/09/28 21:50:34;;;;;;;8.20;3.60;;;;;;;;;;10411556;28;20417;-78
2023/09/28 21:55:35;;;;;;;10.38;3.50;;;;;;;;;;10416093;28;20488;-79
2023/09/28 22:00:39;;;;;;;11.48;3.78;;;;;;;;;;10410137;28;20457;-79
2023/09/28 22:05:40;;;;;;;7.00;3.38;;;;;;;;;;10432538;28;20048;-79
2023/09/28 22:10:40;;;;;;;12.23;3.65;;;;;;;;;;10412331;28;20057;-75
2023/09/28 22:15:41;;;;;;;8.43;3.40;;;;;;;;;;10430300;28;20029;-79
2023/09/28 22:20:42;;;;;;;14.40;3.88;;;;;;;;;;10431060;28;20025;-74
2023/09/28 22:25:43;;;;;;;12.68;3.42;;;;;;;;;;10421411;28;20624;-75
2023/09/28 22:30:43;;;;;;;9.20;2.67;;;;;;;;;;10429653;28;20033;-79
2023/09/28 22:35:45;;;;;;;11.43;3.50;;;;;;;;;;10420659;28;20179;-78
2023/09/28 22:40:45;;;;;;;10.40;3.17;;;;;;;;;;10424593;28;20079;-75
2023/09/28 22:45:45;;;;;;;9.00;3.97;;;;;;;;;;10445132;28;20100;-76
2023/09/28 22:50:45;;;;;;;19.13;4.55;;;;;;;;;;10438408;28;20755;-76
2023/09/28 22:55:46;;;;;;;19.10;4.50;;;;;;;;;;10414681;28;20074;-75
2023/09/28 23:00:46;;;;;;;12.20;3.88;;;;;;;;;;10429636;28;20024;-83
2023/09/28 23:05:47;;;;;;;17.95;4.40;;;;;;;;;;10442054;28;20043;-78
2023/09/28 23:10:49;;;;;;;10.95;4.60;;;;;;;;;;10441672;28;20044;-79
2023/09/28 23:15:49;;;;;;;15.25;4.22;;;;;;;;;;10429847;28;20033;-75
2023/09/28 23:20:49;;;;;;;18.23;4.27;;;;;;;;;;10441220;28;20554;-78
2023/09/28 23:25:50;;;;;;;10.13;4.00;;;;;;;;;;10437215;28;20280;-74
2023/09/28 23:30:55;;;;;;;13.82;4.15;;;;;;;;;;10438174;28;20025;-76
2023/09/28 23:35:58;;;;;;;14.20;4.25;;;;;;;;;;10411074;28;20029;-80
2023/09/28 23:41:00;;;;;;;16.05;4.45;;;;;;;;;;10441169;28;20090;-76
2023/09/28 23:46:03;;;;;;;13.32;4.72;;;;;;;;;;10428725;28;20032;-82
2023/09/28 23:51:05;;;;;;;18.67;4.65;;;;;;;;;;10437601;28;20136;-79
2023/09/28 23:56:05;;;;;;;12.63;4.63;;;;;;;;;;10438228;28;20029;-80
